createdAt,value
2023-05-20T00:00:11.210Z,9.83
2023-05-20T00:02:39.493Z,9.60
2023-05-20T00:05:09.098Z,10.10
2023-05-20T00:07:37.688Z,11.10
2023-05-20T00:10:06.227Z,9.53
2023-05-20T00:12:36.037Z,10.50
2023-05-20T00:15:04.949Z,9.90
2023-05-20T00:17:33.668Z,11.20
2023-05-20T00:20:02.130Z,11.13
2023-05-20T00:22:30.811Z,10.67
2023-05-20T00:24:59.251Z,10.57
2023-05-20T00:27:27.411Z,11.37
2023-05-20T00:29:56.973Z,11.17
2023-05-20T00:32:26.316Z,12.60
2023-05-20T00:34:58.364Z,12.53
2023-05-20T00:37:27.396Z,13.03
2023-05-20T00:39:55.793Z,12.33
2023-05-20T00:42:25.447Z,12.33
2023-05-20T00:44:54.630Z,11.67
2023-05-20T00:47:28.712Z,11.50
2023-05-20T00:49:57.395Z,12.13
2023-05-20T00:52:26.203Z,13.13
2023-05-20T00:54:54.972Z,11.67
2023-05-20T00:57:23.218Z,13.27
2023-05-20T00:59:51.591Z,13.50
2023-05-20T01:02:20.388Z,13.80
2023-05-20T01:04:50.612Z,13.33
2023-05-20T01:07:20.181Z,13.53
2023-05-20T01:09:56.328Z,14.30
2023-05-20T01:12:29.772Z,14.93
2023-05-20T01:15:04.804Z,13.33
2023-05-20T01:17:38.102Z,14.43
2023-05-20T01:20:10.512Z,14.77
2023-05-20T01:22:40.626Z,14.43
2023-05-20T01:25:09.558Z,14.40
2023-05-20T01:27:37.997Z,14.90
2023-05-20T01:30:07.434Z,14.33
2023-05-20T01:32:39.209Z,15.13
2023-05-20T01:35:08.426Z,15.23
2023-05-20T01:37:40.504Z,15.53
2023-05-20T01:40:12.673Z,15.03
2023-05-20T01:42:42.624Z,15.50
2023-05-20T01:45:11.761Z,18.93
2023-05-20T01:47:40.091Z,16.23
2023-05-20T01:50:09.586Z,16.33
2023-05-20T01:52:37.831Z,17.87
2023-05-20T01:55:06.849Z,16.43
2023-05-20T01:57:36.533Z,16.93
2023-05-20T02:00:06.746Z,17.47
2023-05-20T02:02:35.341Z,16.63
2023-05-20T02:05:03.680Z,16.30
2023-05-20T02:07:31.811Z,17.50
2023-05-20T02:10:00.518Z,16.40
2023-05-20T02:12:28.793Z,16.93
2023-05-20T02:14:58.704Z,16.53
2023-05-20T02:17:27.328Z,16.83
2023-05-20T02:19:55.621Z,16.43
2023-05-20T02:22:23.971Z,16.63
2023-05-20T02:24:52.120Z,17.37
2023-05-20T02:27:20.526Z,16.00
2023-05-20T02:29:49.535Z,16.97
2023-05-20T02:32:20.652Z,18.27
2023-05-20T02:34:49.322Z,18.70
2023-05-20T02:37:19.219Z,18.00
2023-05-20T02:39:47.544Z,18.50
2023-05-20T02:42:15.670Z,17.00
2023-05-20T02:44:43.831Z,16.53
2023-05-20T02:47:12.065Z,18.53
2023-05-20T02:49:41.641Z,17.27
2023-05-20T02:52:09.949Z,18.50
2023-05-20T02:54:38.167Z,19.00
2023-05-20T02:57:06.672Z,18.10
2023-05-20T02:59:34.916Z,17.93
2023-05-20T03:02:03.218Z,18.23
2023-05-20T03:04:31.835Z,18.00
2023-05-20T03:07:01.597Z,18.47
2023-05-20T03:09:29.894Z,18.07
2023-05-20T03:11:58.143Z,19.10
2023-05-20T03:14:26.365Z,19.30
2023-05-20T03:16:55.962Z,18.77
2023-05-20T03:19:24.841Z,18.63
2023-05-20T03:21:53.100Z,20.40
2023-05-20T03:24:23.588Z,19.17
2023-05-20T03:26:51.852Z,20.23
2023-05-20T03:29:20.040Z,18.63
2023-05-20T03:31:48.592Z,19.33
2023-05-20T03:34:16.895Z,19.40
2023-05-20T03:36:46.328Z,18.93
2023-05-20T03:39:14.568Z,21.67
2023-05-20T03:41:44.140Z,21.03
2023-05-20T03:44:12.482Z,20.67
2023-05-20T03:46:40.847Z,18.73
2023-05-20T03:49:09.191Z,19.23
2023-05-20T03:51:37.280Z,21.00
2023-05-20T03:54:05.462Z,19.93
2023-05-20T03:56:33.771Z,19.03
2023-05-20T03:59:03.295Z,20.23
2023-05-20T04:01:32.063Z,18.50
2023-05-20T04:04:00.242Z,20.73
2023-05-20T04:06:28.564Z,21.47
2023-05-20T04:08:57.280Z,20.90
2023-05-20T04:11:25.915Z,21.20
2023-05-20T04:13:54.697Z,22.13
2023-05-20T04:16:24.220Z,20.47
2023-05-20T04:18:52.579Z,21.33
2023-05-20T04:21:21.245Z,21.63
2023-05-20T04:23:49.412Z,21.30
2023-05-20T04:26:17.555Z,23.13
2023-05-20T04:28:48.806Z,22.30
2023-05-20T04:31:17.189Z,23.53
2023-05-20T04:33:47.048Z,23.23
2023-05-20T04:36:16.279Z,22.00
2023-05-20T04:38:44.969Z,25.60
2023-05-20T04:41:13.289Z,24.63
2023-05-20T04:43:41.582Z,22.50
2023-05-20T04:46:10.216Z,25.07
2023-05-20T04:48:39.366Z,23.60
2023-05-20T04:51:09.893Z,26.27
2023-05-20T04:53:38.138Z,25.87
2023-05-20T04:56:06.985Z,25.27
2023-05-20T04:58:35.396Z,24.07
2023-05-20T05:01:04.003Z,23.93
2023-05-20T05:03:32.454Z,26.60
2023-05-20T05:06:00.661Z,23.93
2023-05-20T05:08:30.422Z,24.00
2023-05-20T05:10:58.626Z,24.93
2023-05-20T05:13:26.950Z,26.93
2023-05-20T05:16:01.285Z,24.63
2023-05-20T05:18:29.686Z,26.57
2023-05-20T05:21:01.936Z,27.37
2023-05-20T05:23:31.778Z,25.63
2023-05-20T05:26:00.562Z,28.00
2023-05-20T05:28:28.824Z,25.23
2023-05-20T05:30:57.545Z,26.97
2023-05-20T05:33:25.877Z,27.20
2023-05-20T05:35:59.441Z,27.27
2023-05-20T05:38:27.734Z,27.67
2023-05-20T05:40:57.262Z,25.13
2023-05-20T05:43:25.528Z,29.73
2023-05-20T05:45:54.127Z,28.00
2023-05-20T05:48:23.372Z,25.87
2023-05-20T05:50:51.746Z,25.90
2023-05-20T05:53:19.998Z,27.97
2023-05-20T05:55:48.414Z,26.27
2023-05-20T05:58:18.123Z,26.07
2023-05-20T06:00:46.790Z,28.63
2023-05-20T06:03:15.012Z,26.07
2023-05-20T06:05:46.591Z,28.47
2023-05-20T06:08:14.938Z,27.53
2023-05-20T06:10:47.884Z,26.13
2023-05-20T06:13:16.298Z,24.80
2023-05-20T06:15:46.237Z,24.23
2023-05-20T06:18:14.646Z,25.27
2023-05-20T06:20:43.675Z,24.60
2023-05-20T06:23:12.482Z,23.57
2023-05-20T06:25:41.532Z,25.33
2023-05-20T06:28:10.472Z,25.47
2023-05-20T06:30:38.903Z,26.10
2023-05-20T06:33:08.543Z,25.93
2023-05-20T06:35:39.124Z,24.03
2023-05-20T06:38:07.756Z,24.00
2023-05-20T06:40:38.957Z,24.23
2023-05-20T06:43:07.103Z,24.63
2023-05-20T06:45:35.584Z,24.33
2023-05-20T06:48:04.305Z,23.33
2023-05-20T06:50:34.252Z,24.70
2023-05-20T06:53:02.528Z,24.50
2023-05-20T06:55:30.876Z,24.27
2023-05-20T06:57:59.060Z,26.20
2023-05-20T07:00:27.654Z,25.67
2023-05-20T07:02:56.110Z,23.90
2023-05-20T07:05:25.808Z,23.63
2023-05-20T07:07:56.271Z,22.30
2023-05-20T07:10:24.487Z,24.77
2023-05-20T07:12:53.070Z,23.07
2023-05-20T07:15:21.287Z,23.30
2023-05-20T07:17:49.842Z,23.37
2023-05-20T07:20:18.536Z,24.33
2023-05-20T07:22:48.617Z,23.83
2023-05-20T07:25:18.554Z,22.57
2023-05-20T07:27:47.128Z,22.73
2023-05-20T07:30:16.266Z,21.73
2023-05-20T07:32:45.340Z,22.43
2023-05-20T07:35:13.631Z,24.37
2023-05-20T07:37:41.839Z,21.47
2023-05-20T07:40:11.038Z,22.13
2023-05-20T07:42:43.830Z,21.87
2023-05-20T07:45:12.216Z,23.17
2023-05-20T07:47:40.822Z,22.73
2023-05-20T07:50:09.474Z,22.37
2023-05-20T07:52:51.848Z,22.10
2023-05-20T07:55:24.070Z,21.30
2023-05-20T07:57:53.533Z,22.30
2023-05-20T08:00:22.003Z,20.80
2023-05-20T08:02:50.388Z,21.13
2023-05-20T08:05:19.273Z,21.50
2023-05-20T08:07:47.801Z,21.23
2023-05-20T08:10:16.264Z,22.40
2023-05-20T08:12:44.561Z,20.43
2023-05-20T08:15:14.353Z,21.27
2023-05-20T08:17:42.891Z,22.80
2023-05-20T08:20:12.891Z,20.53
2023-05-20T08:22:41.796Z,21.87
2023-05-20T08:25:11.029Z,20.17
2023-05-20T08:27:39.475Z,20.73
2023-05-20T08:30:10.083Z,20.33
2023-05-20T08:32:39.782Z,20.00
2023-05-20T08:35:09.438Z,20.67
2023-05-20T08:37:37.761Z,20.73
2023-05-20T08:40:06.560Z,19.23
2023-05-20T08:42:35.563Z,20.90
2023-05-20T08:45:05.150Z,20.37
2023-05-20T08:47:33.760Z,19.50
2023-05-20T08:50:04.156Z,18.20
2023-05-20T08:52:35.052Z,18.33
2023-05-20T08:55:04.264Z,19.23
2023-05-20T08:57:33.940Z,19.23
2023-05-20T09:00:04.565Z,19.37
2023-05-20T09:02:32.992Z,20.63
2023-05-20T09:05:01.269Z,19.50
2023-05-20T09:07:31.460Z,18.93
2023-05-20T09:10:00.266Z,18.63
2023-05-20T09:12:28.739Z,19.27
2023-05-20T09:14:57.007Z,17.60
2023-05-20T09:17:26.543Z,18.57
2023-05-20T09:19:55.411Z,17.77
2023-05-20T09:22:24.678Z,16.20
2023-05-20T09:24:54.859Z,17.67
2023-05-20T09:27:24.285Z,17.10
2023-05-20T09:29:53.019Z,18.53
2023-05-20T09:32:24.288Z,18.83
2023-05-20T09:34:53.867Z,18.07
2023-05-20T09:37:23.504Z,17.40
2023-05-20T09:40:05.975Z,16.57
2023-05-20T09:42:41.768Z,16.47
2023-05-20T09:45:10.522Z,18.93
2023-05-20T09:47:40.725Z,18.73
2023-05-20T09:50:15.141Z,17.30
2023-05-20T09:52:48.632Z,17.00
2023-05-20T09:55:19.433Z,16.57
2023-05-20T09:57:48.297Z,18.80
2023-05-20T10:00:18.718Z,17.60
2023-05-20T10:02:50.086Z,17.70
2023-05-20T10:05:22.264Z,17.93
2023-05-20T10:08:23.032Z,17.90
2023-05-20T10:10:59.863Z,18.03
2023-05-20T10:13:51.091Z,18.30
2023-05-20T10:16:31.116Z,18.63
2023-05-20T10:19:09.618Z,20.03
2023-05-20T10:21:38.663Z,19.13
2023-05-20T10:24:08.367Z,19.37
2023-05-20T10:26:39.344Z,20.00
2023-05-20T10:29:17.634Z,19.83
2023-05-20T10:31:49.475Z,18.07
2023-05-20T10:34:18.965Z,19.70
2023-05-20T10:36:58.387Z,19.07
2023-05-20T10:39:29.047Z,20.67
2023-05-20T10:42:09.409Z,18.77
2023-05-20T10:44:49.672Z,18.33
2023-05-20T10:47:25.523Z,19.53
2023-05-20T10:49:54.383Z,18.70
2023-05-20T10:52:23.195Z,19.37
2023-05-20T10:55:00.431Z,17.97
2023-05-20T10:57:31.268Z,20.00
2023-05-20T11:00:00.911Z,19.70
2023-05-20T11:02:30.046Z,20.00
2023-05-20T11:04:59.674Z,20.53
2023-05-20T11:07:28.916Z,19.27
2023-05-20T11:09:59.027Z,18.77
2023-05-20T11:12:28.518Z,17.47
2023-05-20T11:15:00.255Z,19.17
2023-05-20T11:17:29.075Z,21.47
2023-05-20T11:20:01.021Z,20.73
2023-05-20T11:22:29.510Z,20.43
2023-05-20T11:24:59.137Z,19.77
2023-05-20T11:27:27.616Z,18.57
2023-05-20T11:29:56.220Z,20.13
2023-05-20T11:32:27.031Z,20.07
2023-05-20T11:34:55.488Z,19.57
2023-05-20T11:37:26.606Z,21.43
2023-05-20T11:40:08.084Z,20.93
2023-05-20T11:42:37.388Z,18.83
2023-05-20T11:45:07.114Z,21.13
2023-05-20T11:47:37.166Z,19.17
2023-05-20T11:50:07.783Z,20.17
2023-05-20T11:52:36.471Z,19.40
2023-05-20T11:55:05.913Z,19.00
2023-05-20T11:57:34.695Z,21.13
2023-05-20T12:00:03.105Z,19.07
2023-05-20T12:02:31.632Z,19.53
2023-05-20T12:05:03.068Z,19.87
2023-05-20T12:07:34.576Z,19.97
2023-05-20T12:10:08.724Z,19.73
2023-05-20T12:12:37.881Z,21.03
2023-05-20T12:15:07.202Z,20.37
2023-05-20T12:17:52.029Z,19.80
2023-05-20T12:20:24.835Z,19.70
2023-05-20T12:22:53.390Z,19.80
2023-05-20T12:25:22.196Z,21.33
2023-05-20T12:27:51.501Z,19.27
2023-05-20T12:30:22.248Z,20.87
2023-05-20T12:32:52.301Z,19.57
2023-05-20T12:35:38.852Z,19.97
2023-05-20T12:38:07.990Z,19.03
2023-05-20T12:40:38.037Z,20.80
2023-05-20T12:43:07.570Z,19.40
2023-05-20T12:45:36.189Z,19.13
2023-05-20T12:48:07.400Z,17.70
2023-05-20T12:50:37.341Z,17.73
2023-05-20T12:53:06.247Z,18.50
2023-05-20T12:55:34.779Z,17.90
2023-05-20T12:58:05.804Z,19.90
2023-05-20T13:00:34.283Z,18.97
2023-05-20T13:03:11.434Z,18.30
2023-05-20T13:05:45.543Z,18.17
2023-05-20T13:08:14.915Z,20.73
2023-05-20T13:10:43.556Z,18.67
2023-05-20T13:13:12.417Z,19.20
2023-05-20T13:15:41.460Z,18.47
2023-05-20T13:18:10.566Z,17.17
2023-05-20T13:20:39.382Z,18.47
2023-05-20T13:23:09.388Z,17.70
2023-05-20T13:25:41.088Z,16.83
2023-05-20T13:28:10.266Z,17.73
2023-05-20T13:30:39.249Z,17.33
2023-05-20T13:33:07.798Z,18.83
2023-05-20T13:35:36.362Z,17.50
2023-05-20T13:38:11.121Z,17.80
2023-05-20T13:40:39.523Z,18.10
2023-05-20T13:43:07.713Z,18.20
2023-05-20T13:45:36.520Z,18.37
2023-05-20T13:48:05.318Z,16.00
2023-05-20T13:50:33.771Z,17.47
2023-05-20T13:53:02.158Z,16.60
2023-05-20T13:55:31.915Z,17.20
2023-05-20T13:58:00.207Z,16.13
2023-05-20T14:00:28.824Z,17.07
2023-05-20T14:02:57.055Z,17.57
2023-05-20T14:05:25.323Z,15.97
2023-05-20T14:07:53.520Z,15.97
2023-05-20T14:10:21.937Z,17.60
2023-05-20T14:12:53.484Z,15.90
2023-05-20T14:15:22.189Z,15.37
2023-05-20T14:17:51.137Z,16.33
2023-05-20T14:20:19.845Z,16.50
2023-05-20T14:22:48.419Z,16.50
2023-05-20T14:25:17.144Z,16.83
2023-05-20T14:27:45.673Z,16.33
2023-05-20T14:30:16.280Z,15.47
2023-05-20T14:32:44.783Z,15.73
2023-05-20T14:35:13.319Z,16.30
2023-05-20T14:37:41.494Z,16.27
2023-05-20T14:40:12.920Z,15.63
2023-05-20T14:42:41.637Z,14.97
2023-05-20T14:45:11.289Z,15.57
2023-05-20T14:47:41.306Z,16.10
2023-05-20T14:50:10.221Z,16.03
2023-05-20T14:52:38.604Z,15.90
2023-05-20T14:55:08.254Z,16.00
2023-05-20T14:57:36.600Z,16.73
2023-05-20T15:00:05.573Z,15.13
2023-05-20T15:02:33.956Z,15.53
2023-05-20T15:05:04.016Z,15.80
2023-05-20T15:07:32.345Z,15.77
2023-05-20T15:10:01.214Z,15.57
2023-05-20T15:12:29.575Z,16.33
2023-05-20T15:14:57.969Z,15.90
2023-05-20T15:17:26.772Z,16.40
2023-05-20T15:19:55.255Z,16.07
2023-05-20T15:22:24.794Z,16.53
2023-05-20T15:24:53.345Z,15.93
2023-05-20T15:27:22.006Z,15.90
2023-05-20T15:29:50.965Z,15.93
2023-05-20T15:32:19.950Z,16.97
2023-05-20T15:34:48.432Z,15.90
2023-05-20T15:37:17.315Z,16.07
2023-05-20T15:39:47.025Z,14.80
2023-05-20T15:42:18.780Z,15.80
2023-05-20T15:44:47.235Z,14.97
2023-05-20T15:47:15.524Z,15.63
2023-05-20T15:49:44.025Z,15.07
2023-05-20T15:52:14.081Z,14.87
2023-05-20T15:54:42.947Z,16.40
2023-05-20T15:57:12.815Z,15.60
2023-05-20T15:59:41.619Z,14.77
2023-05-20T16:02:10.163Z,14.70
2023-05-20T16:04:38.719Z,15.03
2023-05-20T16:07:07.405Z,14.77
2023-05-20T16:09:35.786Z,14.97
2023-05-20T16:12:04.558Z,15.00
2023-05-20T16:14:35.017Z,14.80
2023-05-20T16:17:03.484Z,13.80
2023-05-20T16:19:32.287Z,14.90
2023-05-20T16:22:00.670Z,14.43
2023-05-20T16:24:29.333Z,14.37
2023-05-20T16:26:57.906Z,14.97
2023-05-20T16:29:26.821Z,14.67
2023-05-20T16:31:56.555Z,14.30
2023-05-20T16:34:25.174Z,14.50
2023-05-20T16:36:53.578Z,15.43
2023-05-20T16:39:21.922Z,14.77
2023-05-20T16:41:50.265Z,15.20
2023-05-20T16:44:29.574Z,15.30
2023-05-20T16:46:59.452Z,15.23
2023-05-20T16:49:28.924Z,15.03
2023-05-20T16:51:57.360Z,15.13
2023-05-20T16:54:26.161Z,14.57
2023-05-20T16:56:54.520Z,15.27
2023-05-20T16:59:24.778Z,14.60
2023-05-20T17:01:53.234Z,14.60
2023-05-20T17:04:22.942Z,14.70
2023-05-20T17:06:51.582Z,14.03
2023-05-20T17:09:20.555Z,14.83
2023-05-20T17:11:49.300Z,14.93
2023-05-20T17:14:28.169Z,14.50
2023-05-20T17:16:56.913Z,13.80
2023-05-20T17:19:26.895Z,15.80
2023-05-20T17:21:55.657Z,14.77
2023-05-20T17:24:24.057Z,14.97
2023-05-20T17:26:52.383Z,16.00
2023-05-20T17:29:20.883Z,15.40
2023-05-20T17:31:49.184Z,14.50
2023-05-20T17:34:17.874Z,14.93
2023-05-20T17:36:47.492Z,15.83
2023-05-20T17:39:17.031Z,15.60
2023-05-20T17:41:46.131Z,14.53
2023-05-20T17:44:14.705Z,14.60
2023-05-20T17:46:43.307Z,14.23
2023-05-20T17:49:12.057Z,14.53
2023-05-20T17:51:42.203Z,14.97
2023-05-20T17:54:12.033Z,14.47
2023-05-20T17:56:44.603Z,14.40
2023-05-20T17:59:13.153Z,14.87
2023-05-20T18:01:41.726Z,13.80
2023-05-20T18:04:10.556Z,14.57
2023-05-20T18:06:39.193Z,14.80
2023-05-20T18:09:07.781Z,14.73
2023-05-20T18:11:38.424Z,15.60
2023-05-20T18:14:07.163Z,14.13
2023-05-20T18:16:35.955Z,14.67
2023-05-20T18:19:04.938Z,15.27
2023-05-20T18:21:33.590Z,15.03
2023-05-20T18:24:02.014Z,14.83
2023-05-20T18:26:30.517Z,15.67
2023-05-20T18:29:00.333Z,15.17
2023-05-20T18:31:29.596Z,15.70
2023-05-20T18:33:58.091Z,15.50
2023-05-20T18:36:27.440Z,15.93
2023-05-20T18:38:55.906Z,15.37
2023-05-20T18:41:27.204Z,16.47
2023-05-20T18:44:06.001Z,15.20
2023-05-20T18:46:35.570Z,15.10
2023-05-20T18:49:04.995Z,15.93
2023-05-20T18:51:33.965Z,16.30
2023-05-20T18:54:02.501Z,18.00
2023-05-20T18:56:32.527Z,15.50
2023-05-20T18:59:01.302Z,16.27
2023-05-20T19:01:54.251Z,16.77
2023-05-20T19:04:31.997Z,16.43
2023-05-20T19:07:01.360Z,17.47
2023-05-20T19:09:31.949Z,15.90
2023-05-20T19:12:02.463Z,16.67
2023-05-20T19:14:31.057Z,16.33
2023-05-20T19:17:01.575Z,16.50
2023-05-20T19:19:30.760Z,16.40
2023-05-20T19:21:59.249Z,16.33
2023-05-20T19:24:29.009Z,17.07
2023-05-20T19:26:57.324Z,18.43
2023-05-20T19:29:25.644Z,18.37
2023-05-20T19:31:54.323Z,18.40
2023-05-20T19:34:23.944Z,17.60
2023-05-20T19:36:52.201Z,19.10
2023-05-20T19:39:20.849Z,18.47
2023-05-20T19:41:49.649Z,19.53
2023-05-20T19:44:18.994Z,18.70
2023-05-20T19:46:48.353Z,18.53
2023-05-20T19:49:16.673Z,19.30
2023-05-20T19:51:46.244Z,19.47
2023-05-20T19:54:14.468Z,18.77
2023-05-20T19:56:42.855Z,20.20
2023-05-20T19:59:10.978Z,19.10
2023-05-20T20:01:39.518Z,19.43
2023-05-20T20:04:07.689Z,20.97
2023-05-20T20:06:35.894Z,20.40
2023-05-20T20:09:06.053Z,19.80
2023-05-20T20:11:34.218Z,20.87
2023-05-20T20:14:02.548Z,18.90
2023-05-20T20:16:30.744Z,19.87
2023-05-20T20:18:59.668Z,20.83
2023-05-20T20:21:28.060Z,20.63
2023-05-20T20:23:56.524Z,21.13
2023-05-20T20:26:26.667Z,21.50
2023-05-20T20:28:55.747Z,21.17
2023-05-20T20:31:24.229Z,21.13
2023-05-20T20:33:52.597Z,21.00
2023-05-20T20:36:20.906Z,20.63
2023-05-20T20:38:49.021Z,21.93
2023-05-20T20:41:17.296Z,21.20
2023-05-20T20:43:46.917Z,20.83
2023-05-20T20:46:15.218Z,22.10
2023-05-20T20:48:46.010Z,21.30
2023-05-20T20:51:14.463Z,20.73
2023-05-20T20:53:43.012Z,22.60
2023-05-20T20:56:11.454Z,19.90
2023-05-20T20:58:40.320Z,22.03
2023-05-20T21:01:11.597Z,21.73
2023-05-20T21:03:42.441Z,21.30
2023-05-20T21:06:13.056Z,22.43
2023-05-20T21:08:42.515Z,21.93
2023-05-20T21:11:11.616Z,22.10
2023-05-20T21:13:40.370Z,21.40
2023-05-20T21:16:10.527Z,21.43
2023-05-20T21:18:38.880Z,20.13
2023-05-20T21:21:11.983Z,20.17
2023-05-20T21:23:40.349Z,21.80
2023-05-20T21:26:08.761Z,21.93
2023-05-20T21:28:36.931Z,21.93
2023-05-20T21:31:06.277Z,20.30
2023-05-20T21:33:36.061Z,22.13
2023-05-20T21:36:04.984Z,20.37
2023-05-20T21:38:33.184Z,20.93
2023-05-20T21:41:01.645Z,22.90
2023-05-20T21:43:30.857Z,21.10
2023-05-20T21:45:59.033Z,21.37
2023-05-20T21:48:27.492Z,21.90
2023-05-20T21:50:57.128Z,21.70
2023-05-20T21:53:25.357Z,21.37
2023-05-20T21:55:53.558Z,21.97
2023-05-20T21:58:22.067Z,19.80
2023-05-20T22:00:50.425Z,21.13
2023-05-20T22:03:20.386Z,22.13
2023-05-20T22:05:49.656Z,20.57
2023-05-20T22:08:21.208Z,21.50
2023-05-20T22:10:50.257Z,19.97
2023-05-20T22:13:20.776Z,21.43
2023-05-20T22:15:49.330Z,20.67
2023-05-20T22:18:17.604Z,21.30
2023-05-20T22:20:46.412Z,20.87
2023-05-20T22:23:14.613Z,20.63
2023-05-20T22:25:44.301Z,20.13
2023-05-20T22:28:12.793Z,21.23
2023-05-20T22:30:41.054Z,21.97
2023-05-20T22:33:09.338Z,21.83
2023-05-20T22:35:37.780Z,22.23
2023-05-20T22:38:06.127Z,22.13
2023-05-20T22:44:25.806Z,22.33
2023-05-20T22:46:54.487Z,22.03
2023-05-20T22:49:25.076Z,21.60
2023-05-20T22:51:53.836Z,22.67
2023-05-20T22:54:21.975Z,23.00
2023-05-20T22:56:56.629Z,22.13
2023-05-20T22:59:26.904Z,22.70
2023-05-20T23:01:55.051Z,22.17
2023-05-20T23:04:23.474Z,22.17
2023-05-20T23:06:53.553Z,21.37
2023-05-20T23:09:22.385Z,22.33
2023-05-20T23:11:50.943Z,21.97
2023-05-20T23:14:19.902Z,20.83
2023-05-20T23:16:49.699Z,22.67
2023-05-20T23:19:18.250Z,22.63
2023-05-20T23:21:46.512Z,23.60
2023-05-20T23:24:15.262Z,22.40
2023-05-20T23:26:43.703Z,23.40
2023-05-20T23:29:12.047Z,22.70
2023-05-20T23:31:40.478Z,24.53
2023-05-20T23:34:10.221Z,23.63
2023-05-20T23:36:41.959Z,22.87
2023-05-20T23:39:10.441Z,22.27
2023-05-20T23:41:38.833Z,21.93
2023-05-20T23:44:07.008Z,20.83
2023-05-20T23:46:35.751Z,22.67
2023-05-20T23:49:04.520Z,22.83
2023-05-20T23:51:35.500Z,24.07
2023-05-20T23:54:03.836Z,22.90
2023-05-20T23:56:32.029Z,24.37
2023-05-20T23:59:00.295Z,21.30
